Terminal Aerodrome Forecast
Issued by NWS

Home | Current Version | Previous Version | Text Only | Print | Product List | Glossary Off
Versions: 1 2 3 4 5 6 7 8 9 10 11 12 13 14 15 16 17 18

000
FTUS43 KIWX 070500
TAFSBN
TAF
KSBN 070537Z 0706/0806 21012KT P6SM BKN035
      TEMPO 0708/0710 3SM TSRA BKN020CB OVC035
     FM071000 24010KT 5SM BR BKN025
     FM071600 25012KT P6SM BKN035
     FM072000 29007KT P6SM SCT040 BKN200
     FM080000 VRB03KT P6SM BKN040=

USA.gov is the U.S. government's official web portal to all federal, state and local government web resources and services.